Time;durP1;ratioP1;P1;durP2;ratioP2;P2;SDS_P1;SDS_P2;PMS_P1;PMS_P2;Temp;Humidity;BMP_temperature;BMP_pressure;BME280_temperature;BME280_humidity;BME280_pressure;Samples;Min_cycle;Max_cycle;Signal;HPM_P1;HPM_P2
2021/12/11 00:02:21;;;;;;;0.40;0.40;;;;;;;;;;5041095;28;20211;-70
2021/12/11 00:04:50;;;;;;;0.70;0.70;;;;;;;;;;5041168;28;20231;-70
2021/12/11 00:07:19;;;;;;;0.40;0.40;;;;;;;;;;5036493;28;20208;-70
2021/12/11 00:09:48;;;;;;;0.40;0.40;;;;;;;;;;5041899;28;20713;-70
2021/12/11 00:12:19;;;;;;;0.40;0.40;;;;;;;;;;5039342;28;20298;-69
2021/12/11 00:14:56;;;;;;;0.40;0.40;;;;;;;;;;5042279;28;20203;-70
2021/12/11 00:17:25;;;;;;;0.30;0.30;;;;;;;;;;5048404;28;20207;-70
2021/12/11 00:19:52;;;;;;;0.40;0.40;;;;;;;;;;5035182;28;20203;-69
2021/12/11 00:22:21;;;;;;;0.50;0.50;;;;;;;;;;5033492;28;20227;-70
2021/12/11 00:24:49;;;;;;;0.35;0.35;;;;;;;;;;5029099;28;20258;-70
2021/12/11 00:27:20;;;;;;;0.40;0.40;;;;;;;;;;5036721;28;20218;-69
2021/12/11 00:29:48;;;;;;;0.40;0.40;;;;;;;;;;5039666;28;20324;-69
2021/12/11 00:32:21;;;;;;;0.40;0.40;;;;;;;;;;5034455;28;20288;-69
2021/12/11 00:34:49;;;;;;;0.50;0.50;;;;;;;;;;5034682;28;20203;-70
2021/12/11 00:37:17;;;;;;;0.40;0.40;;;;;;;;;;5036885;28;20211;-69
2021/12/11 00:39:48;;;;;;;0.50;0.50;;;;;;;;;;5037912;28;20227;-69
2021/12/11 00:42:15;;;;;;;0.65;0.65;;;;;;;;;;5039074;28;20226;-69
2021/12/11 00:44:45;;;;;;;0.50;0.50;;;;;;;;;;5035187;28;20306;-70
2021/12/11 00:47:13;;;;;;;0.50;0.50;;;;;;;;;;5043368;28;20307;-70
2021/12/11 00:49:52;;;;;;;0.40;0.40;;;;;;;;;;5036219;28;20203;-70
2021/12/11 00:52:28;;;;;;;0.50;0.50;;;;;;;;;;5033918;28;20221;-69
2021/12/11 00:54:55;;;;;;;0.45;0.45;;;;;;;;;;5040170;28;20204;-69
2021/12/11 00:57:23;;;;;;;0.50;0.50;;;;;;;;;;5030720;28;20231;-70
2021/12/11 01:00:00;;;;;;;0.40;0.40;;;;;;;;;;5030047;28;20196;-69
2021/12/11 01:02:28;;;;;;;0.40;0.40;;;;;;;;;;5041961;28;20261;-69
2021/12/11 01:04:55;;;;;;;0.40;0.40;;;;;;;;;;5045104;28;20202;-70
2021/12/11 01:07:27;;;;;;;0.40;0.40;;;;;;;;;;5041283;28;20195;-70
2021/12/11 01:09:57;;;;;;;0.40;0.40;;;;;;;;;;5040114;28;20210;-69
2021/12/11 01:12:27;;;;;;;0.40;0.40;;;;;;;;;;5041742;28;20293;-69
2021/12/11 01:14:57;;;;;;;0.32;0.32;;;;;;;;;;5037745;28;20200;-69
2021/12/11 01:17:32;;;;;;;0.60;0.60;;;;;;;;;;5044833;28;20203;-69
2021/12/11 01:20:00;;;;;;;0.50;0.50;;;;;;;;;;5038606;28;20218;-69
2021/12/11 01:22:33;;;;;;;0.38;0.38;;;;;;;;;;5040963;28;20208;-70
2021/12/11 01:25:01;;;;;;;0.40;0.40;;;;;;;;;;5038691;28;20195;-69
2021/12/11 01:27:29;;;;;;;0.47;0.47;;;;;;;;;;5040392;28;20209;-69
2021/12/11 01:29:58;;;;;;;0.40;0.40;;;;;;;;;;5044021;28;20204;-69
2021/12/11 01:32:28;;;;;;;0.47;0.47;;;;;;;;;;5044260;28;20255;-70
2021/12/11 01:34:57;;;;;;;0.40;0.40;;;;;;;;;;5041167;28;20202;-70
2021/12/11 01:37:25;;;;;;;0.40;0.40;;;;;;;;;;5038650;28;20234;-70
2021/12/11 01:39:53;;;;;;;0.40;0.40;;;;;;;;;;5044668;28;20255;-69
2021/12/11 01:42:22;;;;;;;0.32;0.32;;;;;;;;;;5035718;28;20224;-70
2021/12/11 01:44:51;;;;;;;0.30;0.30;;;;;;;;;;5034716;28;20665;-70
2021/12/11 01:47:20;;;;;;;0.30;0.30;;;;;;;;;;5038176;28;20211;-69
2021/12/11 01:49:53;;;;;;;0.30;0.30;;;;;;;;;;5040789;28;20196;-69
2021/12/11 01:52:28;;;;;;;0.30;0.30;;;;;;;;;;5045149;28;20314;-70
2021/12/11 01:54:55;;;;;;;0.30;0.30;;;;;;;;;;5036675;28;20261;-70
2021/12/11 01:57:25;;;;;;;0.30;0.30;;;;;;;;;;5036557;28;20200;-71
2021/12/11 01:59:55;;;;;;;0.40;0.40;;;;;;;;;;5050809;28;20200;-69
2021/12/11 02:02:24;;;;;;;0.68;0.50;;;;;;;;;;5037443;28;20218;-70
2021/12/11 02:04:55;;;;;;;0.32;0.32;;;;;;;;;;5038756;28;20223;-70
2021/12/11 02:07:24;;;;;;;0.38;0.38;;;;;;;;;;5041946;28;20222;-70
2021/12/11 02:09:57;;;;;;;0.40;0.40;;;;;;;;;;5031567;28;20206;-70
2021/12/11 02:12:29;;;;;;;0.30;0.30;;;;;;;;;;5044620;28;20239;-69
2021/12/11 02:14:57;;;;;;;0.65;0.50;;;;;;;;;;5035246;28;20195;-69
2021/12/11 02:17:30;;;;;;;0.60;0.60;;;;;;;;;;5037135;28;20278;-70
2021/12/11 02:20:00;;;;;;;0.40;0.40;;;;;;;;;;5043619;28;20282;-70
2021/12/11 02:22:33;;;;;;;0.30;0.30;;;;;;;;;;5045419;28;20247;-70
2021/12/11 02:25:01;;;;;;;0.43;0.43;;;;;;;;;;5037054;28;20302;-70
2021/12/11 02:27:31;;;;;;;0.50;0.50;;;;;;;;;;5042113;28;20199;-70
2021/12/11 02:30:00;;;;;;;0.65;0.55;;;;;;;;;;5045033;28;20241;-70
2021/12/11 02:32:31;;;;;;;0.95;0.80;;;;;;;;;;5056715;28;20237;-70
2021/12/11 02:35:01;;;;;;;0.40;0.40;;;;;;;;;;5034997;28;20197;-70
2021/12/11 02:37:37;;;;;;;0.40;0.40;;;;;;;;;;5035704;28;20650;-70
2021/12/11 02:40:08;;;;;;;0.40;0.40;;;;;;;;;;5061246;28;20203;-70
2021/12/11 02:42:36;;;;;;;0.50;0.47;;;;;;;;;;5045932;28;20272;-70
2021/12/11 02:45:07;;;;;;;0.50;0.47;;;;;;;;;;5033829;28;20302;-70
2021/12/11 02:47:37;;;;;;;0.50;0.50;;;;;;;;;;5042415;28;20281;-70
2021/12/11 02:50:09;;;;;;;0.30;0.30;;;;;;;;;;5045955;28;20226;-70
2021/12/11 02:52:40;;;;;;;0.40;0.40;;;;;;;;;;5038104;28;20227;-71
2021/12/11 02:55:09;;;;;;;0.30;0.30;;;;;;;;;;5043910;28;20200;-70
2021/12/11 02:57:39;;;;;;;0.43;0.40;;;;;;;;;;5031711;28;20203;-70
2021/12/11 03:00:12;;;;;;;0.40;0.40;;;;;;;;;;5040430;28;20213;-69
2021/12/11 03:02:44;;;;;;;0.25;0.25;;;;;;;;;;5036928;28;20219;-69
2021/12/11 03:05:14;;;;;;;0.20;0.20;;;;;;;;;;5041144;28;20673;-69
2021/12/11 03:07:50;;;;;;;0.25;0.25;;;;;;;;;;5043469;28;20195;-70
2021/12/11 03:10:18;;;;;;;0.40;0.40;;;;;;;;;;5043642;28;20253;-70
2021/12/11 03:12:46;;;;;;;0.20;0.20;;;;;;;;;;5033260;28;20248;-69
2021/12/11 03:15:13;;;;;;;0.22;0.22;;;;;;;;;;5036980;28;20199;-71
2021/12/11 03:17:41;;;;;;;0.20;0.20;;;;;;;;;;5044460;28;20231;-70
2021/12/11 03:20:09;;;;;;;0.20;0.20;;;;;;;;;;5057345;28;20633;-69
2021/12/11 03:22:36;;;;;;;0.20;0.20;;;;;;;;;;5034493;28;20224;-70
2021/12/11 03:25:06;;;;;;;0.30;0.30;;;;;;;;;;5039113;28;20200;-70
2021/12/11 03:27:34;;;;;;;0.20;0.20;;;;;;;;;;5040071;28;20230;-71
2021/12/11 03:30:02;;;;;;;0.20;0.20;;;;;;;;;;5040629;28;20285;-69
2021/12/11 03:32:29;;;;;;;0.20;0.20;;;;;;;;;;5035308;28;20215;-70
2021/12/11 03:34:56;;;;;;;0.22;0.22;;;;;;;;;;5033464;28;20626;-70
2021/12/11 03:37:24;;;;;;;0.20;0.20;;;;;;;;;;5033135;28;20196;-70
2021/12/11 03:39:53;;;;;;;0.10;0.10;;;;;;;;;;5040230;28;20204;-70
2021/12/11 03:42:23;;;;;;;0.20;0.20;;;;;;;;;;5039567;28;20222;-70
2021/12/11 03:44:51;;;;;;;0.10;0.10;;;;;;;;;;5032334;28;20219;-70
2021/12/11 03:47:19;;;;;;;0.20;0.20;;;;;;;;;;5038293;28;20257;-70
2021/12/11 03:49:47;;;;;;;0.20;0.20;;;;;;;;;;5034621;28;20621;-69
2021/12/11 03:52:15;;;;;;;0.17;0.17;;;;;;;;;;5032753;28;20223;-69
2021/12/11 03:54:44;;;;;;;0.20;0.20;;;;;;;;;;5041604;28;20335;-70
2021/12/11 03:57:15;;;;;;;0.13;0.13;;;;;;;;;;5040080;28;20207;-69
2021/12/11 03:59:46;;;;;;;0.10;0.10;;;;;;;;;;5028836;28;20196;-69
2021/12/11 04:02:13;;;;;;;0.10;0.10;;;;;;;;;;5042691;28;20234;-69
2021/12/11 04:04:42;;;;;;;0.20;0.20;;;;;;;;;;5040183;28;20200;-70
2021/12/11 04:07:11;;;;;;;0.15;0.15;;;;;;;;;;5043246;28;20195;-70
2021/12/11 04:09:39;;;;;;;0.20;0.20;;;;;;;;;;5040873;28;20211;-69
2021/12/11 04:12:08;;;;;;;0.20;0.20;;;;;;;;;;5038682;28;20234;-69
2021/12/11 04:14:37;;;;;;;0.20;0.20;;;;;;;;;;5039530;28;20207;-70
2021/12/11 04:17:08;;;;;;;0.10;0.10;;;;;;;;;;5033652;28;20195;-69
2021/12/11 04:19:35;;;;;;;0.20;0.20;;;;;;;;;;5045440;28;20215;-70
2021/12/11 04:22:03;;;;;;;0.20;0.20;;;;;;;;;;5036890;28;20226;-69
2021/12/11 04:24:31;;;;;;;0.20;0.20;;;;;;;;;;5036153;28;20195;-70
2021/12/11 04:27:00;;;;;;;0.20;0.20;;;;;;;;;;5037167;28;20207;-69
2021/12/11 04:29:28;;;;;;;0.20;0.20;;;;;;;;;;5037366;28;20745;-69
2021/12/11 04:31:56;;;;;;;0.10;0.10;;;;;;;;;;5035333;28;20223;-70
2021/12/11 04:34:25;;;;;;;0.20;0.20;;;;;;;;;;5030059;28;20220;-69
2021/12/11 04:36:56;;;;;;;0.10;0.10;;;;;;;;;;5034604;28;20251;-70
2021/12/11 04:39:46;;;;;;;0.20;0.20;;;;;;;;;;5038373;28;20230;-70
2021/12/11 04:42:21;;;;;;;0.10;0.10;;;;;;;;;;5047432;28;20230;-70
2021/12/11 04:44:48;;;;;;;0.20;0.20;;;;;;;;;;5043038;28;20198;-71
2021/12/11 04:47:27;;;;;;;0.10;0.10;;;;;;;;;;5045162;28;20253;-70
2021/12/11 04:50:00;;;;;;;0.10;0.10;;;;;;;;;;5042862;28;20204;-70
2021/12/11 04:52:33;;;;;;;0.20;0.20;;;;;;;;;;5036369;28;20223;-69
2021/12/11 04:55:14;;;;;;;0.20;0.20;;;;;;;;;;5043802;28;20216;-69
2021/12/11 04:58:00;;;;;;;0.20;0.20;;;;;;;;;;5041777;28;20195;-69
2021/12/11 05:00:39;;;;;;;0.10;0.10;;;;;;;;;;5029868;28;20207;-70
2021/12/11 05:06:19;;;;;;;0.20;0.20;;;;;;;;;;4991836;28;20200;-70
2021/12/11 05:11:38;;;;;;;0.20;0.20;;;;;;;;;;5032805;28;20223;-70
2021/12/11 05:14:07;;;;;;;0.20;0.20;;;;;;;;;;5037288;28;20297;-69
2021/12/11 05:16:34;;;;;;;0.30;0.30;;;;;;;;;;5044305;28;20205;-69
2021/12/11 05:19:01;;;;;;;0.20;0.20;;;;;;;;;;5037382;28;20200;-69
2021/12/11 05:21:30;;;;;;;0.30;0.30;;;;;;;;;;5042797;28;20227;-69
2021/12/11 05:23:58;;;;;;;0.20;0.20;;;;;;;;;;5041343;28;20192;-69
2021/12/11 05:26:25;;;;;;;0.20;0.20;;;;;;;;;;5036637;28;20211;-72
2021/12/11 05:28:53;;;;;;;0.30;0.30;;;;;;;;;;5044846;28;20226;-70
2021/12/11 05:31:21;;;;;;;0.20;0.20;;;;;;;;;;5043350;28;20222;-70
2021/12/11 05:33:49;;;;;;;0.30;0.30;;;;;;;;;;5036908;28;20221;-70
2021/12/11 05:36:18;;;;;;;0.20;0.20;;;;;;;;;;5037492;28;20281;-71
2021/12/11 05:38:47;;;;;;;0.20;0.20;;;;;;;;;;5031198;28;20196;-69
2021/12/11 05:41:16;;;;;;;0.30;0.30;;;;;;;;;;5041360;28;20241;-69
2021/12/11 05:43:43;;;;;;;0.20;0.20;;;;;;;;;;5032784;28;20192;-69
2021/12/11 05:46:13;;;;;;;0.13;0.13;;;;;;;;;;5040870;28;20307;-69
2021/12/11 05:48:40;;;;;;;0.30;0.30;;;;;;;;;;5039403;28;20209;-70
2021/12/11 05:51:09;;;;;;;0.20;0.20;;;;;;;;;;5044226;28;20223;-69
2021/12/11 05:53:36;;;;;;;0.20;0.20;;;;;;;;;;5043585;28;20222;-70
2021/12/11 05:56:09;;;;;;;0.20;0.20;;;;;;;;;;5042421;28;20202;-69
2021/12/11 05:58:46;;;;;;;0.20;0.20;;;;;;;;;;5037688;28;20744;-70
2021/12/11 06:01:15;;;;;;;0.20;0.20;;;;;;;;;;5046774;28;20230;-69
2021/12/11 06:03:43;;;;;;;0.20;0.20;;;;;;;;;;5041958;28;20294;-70
2021/12/11 06:06:10;;;;;;;0.20;0.20;;;;;;;;;;5042162;28;20207;-70
2021/12/11 06:08:38;;;;;;;0.20;0.20;;;;;;;;;;5035024;28;20204;-69
2021/12/11 06:11:07;;;;;;;0.20;0.20;;;;;;;;;;5042798;28;20241;-69
2021/12/11 06:13:34;;;;;;;0.20;0.20;;;;;;;;;;5033806;28;20705;-70
2021/12/11 06:16:02;;;;;;;0.20;0.20;;;;;;;;;;5040867;28;20207;-69
2021/12/11 06:18:29;;;;;;;0.30;0.30;;;;;;;;;;5038383;28;20208;-69
2021/12/11 06:20:57;;;;;;;0.20;0.20;;;;;;;;;;5043720;28;20290;-70
2021/12/11 06:23:25;;;;;;;0.20;0.20;;;;;;;;;;5035486;28;20196;-68
2021/12/11 06:25:55;;;;;;;0.20;0.20;;;;;;;;;;5035905;28;21255;-69
2021/12/11 06:28:25;;;;;;;0.20;0.20;;;;;;;;;;5042932;28;20214;-69
2021/12/11 06:30:57;;;;;;;0.30;0.30;;;;;;;;;;5042099;28;20234;-69
2021/12/11 06:33:25;;;;;;;0.20;0.20;;;;;;;;;;5035374;28;20218;-69
2021/12/11 06:35:55;;;;;;;0.20;0.20;;;;;;;;;;5034572;28;20319;-69
2021/12/11 06:38:23;;;;;;;0.20;0.20;;;;;;;;;;5039698;28;20242;-69
2021/12/11 06:40:52;;;;;;;0.20;0.20;;;;;;;;;;5039681;28;20257;-69
2021/12/11 06:43:19;;;;;;;0.30;0.30;;;;;;;;;;5042860;28;20199;-69
2021/12/11 06:45:49;;;;;;;0.20;0.20;;;;;;;;;;5041891;28;20207;-70
2021/12/11 06:48:17;;;;;;;0.20;0.20;;;;;;;;;;5033827;28;20350;-69
2021/12/11 06:50:44;;;;;;;0.20;0.20;;;;;;;;;;5035561;28;20196;-69
2021/12/11 06:53:15;;;;;;;0.20;0.20;;;;;;;;;;5039135;28;20223;-68
2021/12/11 06:55:42;;;;;;;0.20;0.20;;;;;;;;;;5037901;28;20734;-68
2021/12/11 06:58:09;;;;;;;0.20;0.20;;;;;;;;;;5041682;28;20227;-68
2021/12/11 07:00:37;;;;;;;0.20;0.20;;;;;;;;;;5040087;28;20239;-68
2021/12/11 07:03:07;;;;;;;0.20;0.20;;;;;;;;;;5040601;28;20227;-69
2021/12/11 07:05:36;;;;;;;0.20;0.20;;;;;;;;;;5038555;28;20282;-68
2021/12/11 07:08:05;;;;;;;0.28;0.28;;;;;;;;;;5031025;28;20227;-69
2021/12/11 07:10:33;;;;;;;0.20;0.20;;;;;;;;;;5036956;28;20206;-70
2021/12/11 07:13:00;;;;;;;0.10;0.10;;;;;;;;;;5051488;28;20231;-69
2021/12/11 07:15:28;;;;;;;0.20;0.20;;;;;;;;;;5039389;28;20272;-69
2021/12/11 07:17:56;;;;;;;0.10;0.10;;;;;;;;;;5042169;28;20204;-69
2021/12/11 07:20:24;;;;;;;0.20;0.20;;;;;;;;;;5043014;28;20231;-69
2021/12/11 07:22:54;;;;;;;0.20;0.20;;;;;;;;;;5040028;28;20230;-69
2021/12/11 07:25:25;;;;;;;0.20;0.20;;;;;;;;;;5042475;28;20230;-69
2021/12/11 07:27:53;;;;;;;0.10;0.10;;;;;;;;;;5035351;28;20293;-69
2021/12/11 07:30:21;;;;;;;0.20;0.20;;;;;;;;;;5044173;28;20332;-69
2021/12/11 07:32:49;;;;;;;0.17;0.17;;;;;;;;;;5038531;28;20216;-71
2021/12/11 07:35:17;;;;;;;0.10;0.10;;;;;;;;;;5036843;28;20231;-69
2021/12/11 07:37:49;;;;;;;0.20;0.20;;;;;;;;;;5040636;28;20242;-69
2021/12/11 07:40:17;;;;;;;0.20;0.20;;;;;;;;;;5037163;28;20207;-68
2021/12/11 07:42:44;;;;;;;0.10;0.10;;;;;;;;;;5042217;28;20219;-68
2021/12/11 07:45:12;;;;;;;0.10;0.10;;;;;;;;;;5039422;28;20196;-69
2021/12/11 07:47:39;;;;;;;0.10;0.10;;;;;;;;;;5040728;28;20203;-68
2021/12/11 07:50:07;;;;;;;0.20;0.20;;;;;;;;;;5042496;28;20195;-68
2021/12/11 07:52:34;;;;;;;0.20;0.20;;;;;;;;;;5031240;28;20243;-69
2021/12/11 07:55:03;;;;;;;0.20;0.20;;;;;;;;;;5029681;28;20219;-69
2021/12/11 07:57:30;;;;;;;0.20;0.20;;;;;;;;;;5043921;28;20199;-69
2021/12/11 07:59:57;;;;;;;0.20;0.20;;;;;;;;;;5038501;28;20203;-69
2021/12/11 08:02:25;;;;;;;0.10;0.10;;;;;;;;;;5038012;28;20258;-69
2021/12/11 08:04:52;;;;;;;0.20;0.20;;;;;;;;;;5035532;28;20200;-68
2021/12/11 08:07:19;;;;;;;0.20;0.20;;;;;;;;;;5044091;28;20199;-70
2021/12/11 08:09:47;;;;;;;0.20;0.20;;;;;;;;;;5034007;28;20210;-70
2021/12/11 08:12:15;;;;;;;0.20;0.20;;;;;;;;;;5039216;28;20246;-68
2021/12/11 08:14:44;;;;;;;0.20;0.20;;;;;;;;;;5033285;28;20219;-69
2021/12/11 08:17:13;;;;;;;0.20;0.20;;;;;;;;;;5031672;28;20325;-70
2021/12/11 08:19:40;;;;;;;0.10;0.10;;;;;;;;;;5039717;28;20215;-69
2021/12/11 08:22:09;;;;;;;0.20;0.20;;;;;;;;;;5045046;28;20286;-69
2021/12/11 08:24:38;;;;;;;0.13;0.13;;;;;;;;;;5037366;28;20203;-69
2021/12/11 08:27:10;;;;;;;0.20;0.20;;;;;;;;;;5031263;28;20227;-70
2021/12/11 08:29:39;;;;;;;0.20;0.20;;;;;;;;;;5034711;28;20200;-70
2021/12/11 08:32:07;;;;;;;0.10;0.10;;;;;;;;;;5030522;28;20297;-68
2021/12/11 08:34:35;;;;;;;0.10;0.10;;;;;;;;;;5042602;28;20219;-69
2021/12/11 08:37:03;;;;;;;0.20;0.20;;;;;;;;;;5040779;28;20199;-69
2021/12/11 08:39:31;;;;;;;0.20;0.20;;;;;;;;;;5033464;28;20599;-69
2021/12/11 08:41:59;;;;;;;0.20;0.20;;;;;;;;;;5043217;28;20227;-69
2021/12/11 08:44:27;;;;;;;0.10;0.10;;;;;;;;;;5031950;28;20290;-69
2021/12/11 08:46:58;;;;;;;0.10;0.10;;;;;;;;;;5033937;28;20203;-69
2021/12/11 08:49:27;;;;;;;0.20;0.20;;;;;;;;;;5040466;28;20227;-68
2021/12/11 08:51:56;;;;;;;0.20;0.20;;;;;;;;;;5038161;28;20235;-71
2021/12/11 08:54:27;;;;;;;0.20;0.20;;;;;;;;;;5039215;28;20223;-69
2021/12/11 08:56:55;;;;;;;0.10;0.10;;;;;;;;;;5035654;28;20365;-70
2021/12/11 08:59:24;;;;;;;0.10;0.10;;;;;;;;;;5032941;28;20200;-70
2021/12/11 09:01:54;;;;;;;0.20;0.20;;;;;;;;;;5035348;28;20261;-68
2021/12/11 09:04:25;;;;;;;0.15;0.15;;;;;;;;;;5037276;28;20257;-68
2021/12/11 09:06:54;;;;;;;0.10;0.10;;;;;;;;;;5036340;28;20203;-69
2021/12/11 09:09:24;;;;;;;0.10;0.10;;;;;;;;;;5036926;28;20289;-69
2021/12/11 09:11:56;;;;;;;0.20;0.20;;;;;;;;;;5037647;28;20254;-70
2021/12/11 09:14:26;;;;;;;0.20;0.20;;;;;;;;;;5035665;28;20223;-69
2021/12/11 09:17:00;;;;;;;0.10;0.10;;;;;;;;;;5038039;28;20188;-71
2021/12/11 09:19:32;;;;;;;0.20;0.20;;;;;;;;;;5034982;28;20220;-69
2021/12/11 09:22:02;;;;;;;0.10;0.10;;;;;;;;;;5058904;28;20211;-69
2021/12/11 09:24:35;;;;;;;0.20;0.20;;;;;;;;;;5040530;28;20202;-68
2021/12/11 09:27:04;;;;;;;0.10;0.10;;;;;;;;;;5050335;28;20210;-70
2021/12/11 09:29:33;;;;;;;0.10;0.10;;;;;;;;;;5046884;28;20223;-71
2021/12/11 09:32:08;;;;;;;0.10;0.10;;;;;;;;;;5046595;28;20273;-69
2021/12/11 09:34:38;;;;;;;0.10;0.10;;;;;;;;;;5038033;28;20218;-69
2021/12/11 09:37:09;;;;;;;0.20;0.20;;;;;;;;;;5041443;28;20231;-69
2021/12/11 09:39:38;;;;;;;0.10;0.10;;;;;;;;;;5040905;28;20200;-69
2021/12/11 09:42:06;;;;;;;0.20;0.20;;;;;;;;;;5039867;28;20289;-70
2021/12/11 09:44:36;;;;;;;0.15;0.15;;;;;;;;;;5037873;28;20246;-69
2021/12/11 09:47:06;;;;;;;0.10;0.10;;;;;;;;;;5039834;28;20254;-69
2021/12/11 09:49:38;;;;;;;0.20;0.20;;;;;;;;;;5041726;28;20671;-70
2021/12/11 09:52:15;;;;;;;0.20;0.20;;;;;;;;;;5033582;28;20674;-69
2021/12/11 09:54:45;;;;;;;0.20;0.20;;;;;;;;;;5038874;28;20235;-70
2021/12/11 09:57:14;;;;;;;0.10;0.10;;;;;;;;;;5062790;28;20203;-70
2021/12/11 09:59:43;;;;;;;0.10;0.10;;;;;;;;;;5034994;28;20200;-70
2021/12/11 10:02:13;;;;;;;0.10;0.10;;;;;;;;;;5039907;28;20662;-70
2021/12/11 10:04:43;;;;;;;0.10;0.10;;;;;;;;;;5042863;28;20672;-70
2021/12/11 10:07:28;;;;;;;0.20;0.20;;;;;;;;;;5040679;28;20744;-71
2021/12/11 10:09:57;;;;;;;0.13;0.13;;;;;;;;;;5039566;28;20207;-70
2021/12/11 10:12:27;;;;;;;0.20;0.20;;;;;;;;;;5043577;28;20728;-70
2021/12/11 10:14:59;;;;;;;0.10;0.10;;;;;;;;;;5044818;28;20700;-70
2021/12/11 10:17:34;;;;;;;0.20;0.20;;;;;;;;;;5034865;28;20624;-70
2021/12/11 10:20:05;;;;;;;0.10;0.10;;;;;;;;;;5038060;28;20622;-71
2021/12/11 10:22:33;;;;;;;0.20;0.20;;;;;;;;;;5042834;28;20707;-70
2021/12/11 10:25:01;;;;;;;0.10;0.10;;;;;;;;;;5049667;28;20450;-70
2021/12/11 10:27:30;;;;;;;0.20;0.20;;;;;;;;;;5047379;28;20741;-71
2021/12/11 10:30:00;;;;;;;0.10;0.10;;;;;;;;;;5040169;28;20214;-70
2021/12/11 10:32:28;;;;;;;0.20;0.20;;;;;;;;;;5037921;28;20769;-71
2021/12/11 10:34:57;;;;;;;0.20;0.20;;;;;;;;;;5029391;28;20682;-71
2021/12/11 10:37:29;;;;;;;0.20;0.20;;;;;;;;;;5037615;28;20676;-71
2021/12/11 10:39:58;;;;;;;0.10;0.10;;;;;;;;;;5059055;28;20630;-71
2021/12/11 10:42:25;;;;;;;0.10;0.10;;;;;;;;;;5042750;28;21214;-70
2021/12/11 10:44:54;;;;;;;0.10;0.10;;;;;;;;;;5034123;28;20657;-70
2021/12/11 10:47:24;;;;;;;0.10;0.10;;;;;;;;;;5042809;28;20663;-72
2021/12/11 10:49:53;;;;;;;0.20;0.20;;;;;;;;;;5033930;28;20618;-71
2021/12/11 10:52:21;;;;;;;0.10;0.10;;;;;;;;;;5037173;28;20744;-70
2021/12/11 10:54:50;;;;;;;0.20;0.20;;;;;;;;;;5040326;28;20618;-71
2021/12/11 10:57:18;;;;;;;0.20;0.20;;;;;;;;;;5037372;28;20614;-71
2021/12/11 10:59:47;;;;;;;0.20;0.20;;;;;;;;;;5034109;28;20682;-70
2021/12/11 11:02:16;;;;;;;0.20;0.20;;;;;;;;;;5036681;28;20653;-71
2021/12/11 11:04:47;;;;;;;0.10;0.10;;;;;;;;;;5041444;28;20625;-71
2021/12/11 11:07:15;;;;;;;0.20;0.20;;;;;;;;;;5041609;28;21270;-71
2021/12/11 11:09:42;;;;;;;0.20;0.20;;;;;;;;;;5043484;28;20641;-71
2021/12/11 11:12:12;;;;;;;0.10;0.10;;;;;;;;;;5042445;28;20662;-71
2021/12/11 11:14:39;;;;;;;0.10;0.10;;;;;;;;;;5038970;28;20202;-71
2021/12/11 11:17:08;;;;;;;0.20;0.20;;;;;;;;;;5038337;28;20609;-70
2021/12/11 11:19:38;;;;;;;0.20;0.20;;;;;;;;;;5038358;28;20631;-71
2021/12/11 11:22:09;;;;;;;0.13;0.13;;;;;;;;;;5040685;28;20657;-70
2021/12/11 11:24:37;;;;;;;0.20;0.20;;;;;;;;;;5037905;28;20616;-71
2021/12/11 11:27:06;;;;;;;0.10;0.10;;;;;;;;;;5034908;28;20626;-71
2021/12/11 11:29:34;;;;;;;0.20;0.20;;;;;;;;;;5041780;28;20614;-72
2021/12/11 11:32:03;;;;;;;0.20;0.20;;;;;;;;;;5037523;28;20658;-70
2021/12/11 11:34:31;;;;;;;0.20;0.20;;;;;;;;;;5039829;28;20668;-71
2021/12/11 11:37:02;;;;;;;0.10;0.10;;;;;;;;;;5036504;28;20653;-71
2021/12/11 11:39:31;;;;;;;0.20;0.20;;;;;;;;;;5036929;28;20610;-71
2021/12/11 11:42:00;;;;;;;0.20;0.20;;;;;;;;;;5038372;28;20666;-72
2021/12/11 11:44:28;;;;;;;0.20;0.20;;;;;;;;;;5029123;28;20637;-71
2021/12/11 11:46:57;;;;;;;0.10;0.10;;;;;;;;;;5031652;28;20603;-70
2021/12/11 11:49:24;;;;;;;0.20;0.20;;;;;;;;;;5041871;28;20606;-71
2021/12/11 11:51:55;;;;;;;0.20;0.20;;;;;;;;;;5042467;28;20723;-71
2021/12/11 11:54:24;;;;;;;0.20;0.20;;;;;;;;;;5032875;28;20613;-71
2021/12/11 11:56:57;;;;;;;0.10;0.10;;;;;;;;;;5044720;28;20711;-71
2021/12/11 11:59:24;;;;;;;0.10;0.10;;;;;;;;;;5043796;28;20616;-70
2021/12/11 12:01:53;;;;;;;0.20;0.20;;;;;;;;;;5036201;28;20662;-70
2021/12/11 12:04:22;;;;;;;0.10;0.10;;;;;;;;;;5038471;28;20684;-70
2021/12/11 12:06:55;;;;;;;0.10;0.10;;;;;;;;;;5035264;28;20718;-71
2021/12/11 12:09:22;;;;;;;0.10;0.10;;;;;;;;;;5058622;28;20618;-71
2021/12/11 12:11:50;;;;;;;0.20;0.20;;;;;;;;;;5039530;28;20680;-71
2021/12/11 12:14:21;;;;;;;0.20;0.20;;;;;;;;;;5035839;28;20622;-70
2021/12/11 12:16:49;;;;;;;0.10;0.10;;;;;;;;;;5037467;28;20649;-71
2021/12/11 12:19:17;;;;;;;0.10;0.10;;;;;;;;;;5029720;28;20900;-70
2021/12/11 12:21:46;;;;;;;0.20;0.20;;;;;;;;;;5035031;28;20642;-70
2021/12/11 12:24:17;;;;;;;0.10;0.10;;;;;;;;;;5041638;28;20638;-71
2021/12/11 12:26:45;;;;;;;0.10;0.10;;;;;;;;;;5033715;28;20621;-71
2021/12/11 12:29:14;;;;;;;0.20;0.20;;;;;;;;;;5029253;28;20632;-70
2021/12/11 12:31:44;;;;;;;0.20;0.20;;;;;;;;;;5034317;28;20761;-71
2021/12/11 12:34:13;;;;;;;0.10;0.10;;;;;;;;;;5056423;28;20634;-71
2021/12/11 12:36:41;;;;;;;0.10;0.10;;;;;;;;;;5033386;28;20647;-71
2021/12/11 12:39:09;;;;;;;0.10;0.10;;;;;;;;;;5036623;28;20676;-71
2021/12/11 12:41:38;;;;;;;0.10;0.10;;;;;;;;;;5038981;28;21197;-71
2021/12/11 12:44:19;;;;;;;0.10;0.10;;;;;;;;;;5039580;28;20671;-71
2021/12/11 12:46:51;;;;;;;0.20;0.20;;;;;;;;;;5034044;28;20625;-71
2021/12/11 12:49:20;;;;;;;0.20;0.20;;;;;;;;;;5035843;28;20617;-68
2021/12/11 12:51:49;;;;;;;0.17;0.17;;;;;;;;;;5039872;28;20716;-69
2021/12/11 12:54:17;;;;;;;0.20;0.20;;;;;;;;;;5036546;28;20634;-69
2021/12/11 12:56:46;;;;;;;0.10;0.10;;;;;;;;;;5047764;28;20774;-69
2021/12/11 12:59:15;;;;;;;0.17;0.17;;;;;;;;;;5048103;28;20618;-69
2021/12/11 13:01:45;;;;;;;0.20;0.20;;;;;;;;;;5040405;28;20707;-70
2021/12/11 13:04:15;;;;;;;0.10;0.10;;;;;;;;;;5044159;28;20637;-70
2021/12/11 13:06:44;;;;;;;0.17;0.17;;;;;;;;;;5047182;28;20679;-69
2021/12/11 13:09:14;;;;;;;0.10;0.10;;;;;;;;;;5038683;28;20656;-70
2021/12/11 13:11:43;;;;;;;0.20;0.20;;;;;;;;;;5043344;28;20715;-68
2021/12/11 13:14:11;;;;;;;0.10;0.10;;;;;;;;;;5039922;28;20642;-69
2021/12/11 13:16:39;;;;;;;0.13;0.13;;;;;;;;;;5041980;28;20722;-69
2021/12/11 13:19:07;;;;;;;0.10;0.10;;;;;;;;;;5037996;28;20666;-70
2021/12/11 13:21:38;;;;;;;0.10;0.10;;;;;;;;;;5042011;28;20744;-69
2021/12/11 13:24:07;;;;;;;0.10;0.10;;;;;;;;;;5039582;28;20663;-70
2021/12/11 13:26:35;;;;;;;0.20;0.20;;;;;;;;;;5034865;28;20724;-69
2021/12/11 13:29:05;;;;;;;0.10;0.10;;;;;;;;;;5041437;28;20703;-69
2021/12/11 13:31:34;;;;;;;0.20;0.20;;;;;;;;;;5039055;28;20707;-70
2021/12/11 13:34:03;;;;;;;0.20;0.20;;;;;;;;;;5058804;28;20658;-70
2021/12/11 13:36:30;;;;;;;0.10;0.10;;;;;;;;;;5040507;28;20649;-69
2021/12/11 13:38:59;;;;;;;0.10;0.10;;;;;;;;;;5047668;28;20617;-70
2021/12/11 13:41:29;;;;;;;0.20;0.20;;;;;;;;;;5043450;28;20673;-69
2021/12/11 13:43:56;;;;;;;0.10;0.10;;;;;;;;;;5042099;28;20630;-70
2021/12/11 13:46:23;;;;;;;0.10;0.10;;;;;;;;;;5043355;28;20688;-69
2021/12/11 13:48:51;;;;;;;0.20;0.20;;;;;;;;;;5043561;28;20609;-70
2021/12/11 13:51:22;;;;;;;0.10;0.10;;;;;;;;;;5043327;28;20731;-69
2021/12/11 13:53:49;;;;;;;0.10;0.10;;;;;;;;;;5039576;28;20627;-70
2021/12/11 13:56:21;;;;;;;0.20;0.20;;;;;;;;;;5039632;28;20646;-69
2021/12/11 13:58:49;;;;;;;0.10;0.10;;;;;;;;;;5034798;28;20650;-68
2021/12/11 14:01:18;;;;;;;0.10;0.10;;;;;;;;;;5042022;28;20748;-69
2021/12/11 14:03:46;;;;;;;0.10;0.10;;;;;;;;;;5037253;28;20645;-69
2021/12/11 14:06:13;;;;;;;0.10;0.10;;;;;;;;;;5042677;28;20606;-70
2021/12/11 14:08:41;;;;;;;0.10;0.10;;;;;;;;;;5039493;28;20653;-70
2021/12/11 14:11:09;;;;;;;0.10;0.10;;;;;;;;;;5041871;28;20694;-69
2021/12/11 14:13:38;;;;;;;0.10;0.10;;;;;;;;;;5038225;28;20722;-69
2021/12/11 14:16:07;;;;;;;0.10;0.10;;;;;;;;;;5040894;28;20749;-69
2021/12/11 14:18:34;;;;;;;0.10;0.10;;;;;;;;;;5038469;28;20609;-68
2021/12/11 14:21:02;;;;;;;0.10;0.10;;;;;;;;;;5042477;28;20645;-69
2021/12/11 14:23:34;;;;;;;0.10;0.10;;;;;;;;;;5040782;28;20629;-69
2021/12/11 14:26:03;;;;;;;0.10;0.10;;;;;;;;;;5038555;28;20977;-70
2021/12/11 14:28:31;;;;;;;0.10;0.10;;;;;;;;;;5041292;28;20726;-68
2021/12/11 14:31:01;;;;;;;0.10;0.10;;;;;;;;;;5039707;28;20616;-69
2021/12/11 14:33:30;;;;;;;0.10;0.10;;;;;;;;;;5040895;28;20626;-68
2021/12/11 14:35:57;;;;;;;0.10;0.10;;;;;;;;;;5037462;28;20636;-69
2021/12/11 14:38:25;;;;;;;0.10;0.10;;;;;;;;;;5040804;28;20651;-68
2021/12/11 14:40:54;;;;;;;0.10;0.10;;;;;;;;;;5042563;28;20663;-69
2021/12/11 14:43:22;;;;;;;0.10;0.10;;;;;;;;;;5042676;28;20657;-70
2021/12/11 14:45:51;;;;;;;0.10;0.10;;;;;;;;;;5038675;28;20656;-69
2021/12/11 14:48:20;;;;;;;0.10;0.10;;;;;;;;;;5037450;28;20625;-69
2021/12/11 14:50:51;;;;;;;0.10;0.10;;;;;;;;;;5042479;28;20610;-68
2021/12/11 14:53:22;;;;;;;0.10;0.10;;;;;;;;;;5039380;28;20607;-68
2021/12/11 14:55:52;;;;;;;0.20;0.20;;;;;;;;;;5038229;28;20624;-68
2021/12/11 14:58:19;;;;;;;0.10;0.10;;;;;;;;;;5050786;28;20621;-69
2021/12/11 15:00:48;;;;;;;0.10;0.10;;;;;;;;;;5055383;28;20725;-69
2021/12/11 15:03:16;;;;;;;0.10;0.10;;;;;;;;;;5039576;28;20635;-69